OISA  Abadeh Airport

Add Bookmark

Abadeh, Iran

Status
Operational
Latitude Longitude
31° 10' 0" N 52° 40' 0" E
31.166668 52.666668
Local (DST + 5) UTC (GMT + 4)
Jul 23, 2014 10:06 Jul 23, 2014 05:36
Sunrise-Sunset Local UTC
Begin Civil Twilight 05:42 01:12
Sunrise 06:09 01:39
Sunset 08:02 15:32
End Civil Twilight 08:29 15:59

Current Weather

METAR Observed VFR
OISA 230450Z 29010KT CAVOK 28/M01 Q1015 Wed, Jul 23, 2014 @ 04:50 UTC
(46 Minutes ago)
Visual Flight Rules

Decoded METAR

Wind Visibility Clouds Conditions
290° at 10 knots (19 kph) 10 km or more
  • Clear skies
  • No significant weather
Temperatures Readings Precipitation
Current Temp 28°C (82°F)
Dewpoint -1°C (30°F)
Humidity 15%
Altimeter 29.97"Hg
Sea Level Pressure 1015mb
Field Elevation 6574.8'
None Recorded

Additional weather within a 185.2km radius of OISA

Map ICAO Location METAR
OISY 118.7km W (244°) 36 mins ago
OIYY 173.2km E (061°) 36 mins ago
OISS 180.9km S (182°) 36 mins ago

24 Hour Weather History

Loading
-

24 Hour Weather Graphs

Loading
-

CheckWX.com is intended as a tool to help pilots better visualize weather data. It is not intended as a substitute for an official weather briefing obtained from a Flight Service Station. CheckWX.com does not meet the FAA requirements for an official pre-flight weather briefing. Therefore, it's important that pilots still call and obtain an official FSS pre-flight weather briefing.